sensor_id;sensor_type;location;lat;lon;timestamp;pressure;altitude;pressure_sealevel;temperature;humidity
60646;BME280;46462;32.608;-117.032;2022-09-16T00:01:52;99219.82;;;28.66;42.98
60646;BME280;46462;32.608;-117.032;2022-09-16T00:04:22;99221.61;;;28.68;42.85
60646;BME280;46462;32.608;-117.032;2022-09-16T00:06:52;99223.05;;;28.68;42.97
60646;BME280;46462;32.608;-117.032;2022-09-16T00:09:22;99224.39;;;28.68;42.98
60646;BME280;46462;32.608;-117.032;2022-09-16T00:11:52;99222.26;;;28.93;42.51
60646;BME280;46462;32.608;-117.032;2022-09-16T00:14:22;99225.81;;;29.00;42.37
60646;BME280;46462;32.608;-117.032;2022-09-16T00:16:52;99232.32;;;29.15;42.16
60646;BME280;46462;32.608;-117.032;2022-09-16T00:19:22;99229.40;;;29.12;42.25
60646;BME280;46462;32.608;-117.032;2022-09-16T00:21:52;99236.47;;;29.17;42.15
60646;BME280;46462;32.608;-117.032;2022-09-16T00:24:22;99232.65;;;29.21;42.10
60646;BME280;46462;32.608;-117.032;2022-09-16T00:26:53;99233.94;;;29.25;42.15
60646;BME280;46462;32.608;-117.032;2022-09-16T00:29:23;99230.86;;;29.26;42.22
60646;BME280;46462;32.608;-117.032;2022-09-16T00:31:53;99231.32;;;29.34;42.10
60646;BME280;46462;32.608;-117.032;2022-09-16T00:34:23;99230.31;;;29.28;42.30
60646;BME280;46462;32.608;-117.032;2022-09-16T00:36:53;99230.06;;;29.21;42.55
60646;BME280;46462;32.608;-117.032;2022-09-16T00:39:23;99229.37;;;29.07;42.90
60646;BME280;46462;32.608;-117.032;2022-09-16T00:41:53;99228.52;;;29.09;42.99
60646;BME280;46462;32.608;-117.032;2022-09-16T00:46:54;99229.81;;;29.18;42.82
60646;BME280;46462;32.608;-117.032;2022-09-16T00:49:26;99228.00;;;29.20;42.79
60646;BME280;46462;32.608;-117.032;2022-09-16T00:51:58;99229.12;;;29.18;42.92
60646;BME280;46462;32.608;-117.032;2022-09-16T00:54:24;99229.12;;;29.18;42.91
60646;BME280;46462;32.608;-117.032;2022-09-16T00:56:56;99230.19;;;29.23;42.91
60646;BME280;46462;32.608;-117.032;2022-09-16T00:59:27;99232.09;;;29.19;43.05
60646;BME280;46462;32.608;-117.032;2022-09-16T01:01:55;99231.05;;;29.25;42.92
60646;BME280;46462;32.608;-117.032;2022-09-16T01:04:27;99231.20;;;29.19;43.08
60646;BME280;46462;32.608;-117.032;2022-09-16T01:06:55;99232.07;;;29.26;43.10
60646;BME280;46462;32.608;-117.032;2022-09-16T01:09:25;99231.86;;;29.31;42.92
60646;BME280;46462;32.608;-117.032;2022-09-16T01:11:55;99228.63;;;29.37;42.83
60646;BME280;46462;32.608;-117.032;2022-09-16T01:14:26;99231.22;;;29.39;42.84
60646;BME280;46462;32.608;-117.032;2022-09-16T01:17:00;99232.31;;;29.47;42.65
60646;BME280;46462;32.608;-117.032;2022-09-16T01:19:40;99232.62;;;29.51;42.62
60646;BME280;46462;32.608;-117.032;2022-09-16T01:22:01;99234.24;;;29.36;43.11
60646;BME280;46462;32.608;-117.032;2022-09-16T01:31:59;99242.98;;;29.44;43.13
60646;BME280;46462;32.608;-117.032;2022-09-16T01:34:33;99243.06;;;29.48;43.07
60646;BME280;46462;32.608;-117.032;2022-09-16T01:37:02;99242.77;;;29.49;43.02
60646;BME280;46462;32.608;-117.032;2022-09-16T01:39:30;99243.31;;;29.50;43.03
60646;BME280;46462;32.608;-117.032;2022-09-16T01:42:06;99243.50;;;29.51;42.99
60646;BME280;46462;32.608;-117.032;2022-09-16T01:44:34;99244.91;;;29.52;42.97
60646;BME280;46462;32.608;-117.032;2022-09-16T01:47:01;99247.51;;;29.53;42.93
60646;BME280;46462;32.608;-117.032;2022-09-16T01:49:35;99245.66;;;29.54;42.93
60646;BME280;46462;32.608;-117.032;2022-09-16T01:52:02;99244.73;;;29.55;42.98
60646;BME280;46462;32.608;-117.032;2022-09-16T01:54:30;99248.52;;;29.55;42.99
60646;BME280;46462;32.608;-117.032;2022-09-16T01:57:01;99249.24;;;29.55;42.83
60646;BME280;46462;32.608;-117.032;2022-09-16T01:59:33;99252.20;;;29.56;42.89
60646;BME280;46462;32.608;-117.032;2022-09-16T02:02:00;99249.66;;;29.56;42.86
60646;BME280;46462;32.608;-117.032;2022-09-16T02:04:30;99245.62;;;29.57;42.89
60646;BME280;46462;32.608;-117.032;2022-09-16T02:06:59;99244.82;;;29.59;42.92
60646;BME280;46462;32.608;-117.032;2022-09-16T02:09:31;99246.30;;;29.57;42.94
60646;BME280;46462;32.608;-117.032;2022-09-16T02:12:00;99248.07;;;29.58;42.86
60646;BME280;46462;32.608;-117.032;2022-09-16T02:14:28;99245.03;;;29.54;42.84
60646;BME280;46462;32.608;-117.032;2022-09-16T02:16:59;99245.70;;;29.55;42.86
60646;BME280;46462;32.608;-117.032;2022-09-16T02:19:30;99247.95;;;29.56;42.84
60646;BME280;46462;32.608;-117.032;2022-09-16T02:22:01;99250.80;;;29.55;42.86
60646;BME280;46462;32.608;-117.032;2022-09-16T02:24:29;99252.94;;;29.54;42.95
60646;BME280;46462;32.608;-117.032;2022-09-16T02:27:01;99253.25;;;29.54;42.91
60646;BME280;46462;32.608;-117.032;2022-09-16T02:29:31;99256.82;;;29.55;42.95
60646;BME280;46462;32.608;-117.032;2022-09-16T02:32:00;99257.93;;;29.55;42.92
60646;BME280;46462;32.608;-117.032;2022-09-16T02:34:31;99260.60;;;29.54;42.90
60646;BME280;46462;32.608;-117.032;2022-09-16T02:37:02;99263.22;;;29.56;42.88
60646;BME280;46462;32.608;-117.032;2022-09-16T02:39:31;99262.77;;;29.54;42.78
60646;BME280;46462;32.608;-117.032;2022-09-16T02:41:59;99266.80;;;29.55;42.79
60646;BME280;46462;32.608;-117.032;2022-09-16T02:44:29;99266.07;;;29.53;42.80
60646;BME280;46462;32.608;-117.032;2022-09-16T02:47:02;99267.54;;;29.54;42.83
60646;BME280;46462;32.608;-117.032;2022-09-16T02:49:36;99270.39;;;29.52;42.85
60646;BME280;46462;32.608;-117.032;2022-09-16T02:52:04;99272.01;;;29.54;42.89
60646;BME280;46462;32.608;-117.032;2022-09-16T02:54:34;99272.40;;;29.55;42.83
60646;BME280;46462;32.608;-117.032;2022-09-16T02:56:59;99271.74;;;29.54;42.83
60646;BME280;46462;32.608;-117.032;2022-09-16T02:59:29;99272.86;;;29.53;42.88
60646;BME280;46462;32.608;-117.032;2022-09-16T03:02:00;99275.35;;;29.54;42.87
60646;BME280;46462;32.608;-117.032;2022-09-16T03:04:29;99275.55;;;29.51;42.93
60646;BME280;46462;32.608;-117.032;2022-09-16T03:06:59;99277.65;;;29.51;42.88
60646;BME280;46462;32.608;-117.032;2022-09-16T03:09:29;99277.75;;;29.50;42.93
60646;BME280;46462;32.608;-117.032;2022-09-16T03:12:11;99281.98;;;29.51;42.90
60646;BME280;46462;32.608;-117.032;2022-09-16T03:14:38;99285.11;;;29.49;42.89
60646;BME280;46462;32.608;-117.032;2022-09-16T03:17:09;99284.78;;;29.47;42.93
60646;BME280;46462;32.608;-117.032;2022-09-16T03:19:37;99288.55;;;29.44;43.06
60646;BME280;46462;32.608;-117.032;2022-09-16T03:22:04;99291.53;;;29.47;42.98
60646;BME280;46462;32.608;-117.032;2022-09-16T03:24:37;99293.42;;;29.43;43.10
60646;BME280;46462;32.608;-117.032;2022-09-16T03:27:04;99295.61;;;29.39;43.18
60646;BME280;46462;32.608;-117.032;2022-09-16T03:29:33;99296.83;;;29.36;43.24
60646;BME280;46462;32.608;-117.032;2022-09-16T03:32:08;99299.01;;;29.38;43.21
60646;BME280;46462;32.608;-117.032;2022-09-16T03:34:33;99302.98;;;29.39;43.19
60646;BME280;46462;32.608;-117.032;2022-09-16T03:37:04;99305.45;;;29.40;43.17
60646;BME280;46462;32.608;-117.032;2022-09-16T03:39:31;99307.29;;;29.41;43.12
60646;BME280;46462;32.608;-117.032;2022-09-16T03:42:01;99309.93;;;29.40;43.15
60646;BME280;46462;32.608;-117.032;2022-09-16T03:44:32;99309.82;;;29.36;43.23
60646;BME280;46462;32.608;-117.032;2022-09-16T03:47:01;99313.96;;;29.32;43.30
60646;BME280;46462;32.608;-117.032;2022-09-16T03:49:31;99318.73;;;29.32;43.35
60646;BME280;46462;32.608;-117.032;2022-09-16T03:52:01;99320.17;;;29.31;43.39
60646;BME280;46462;32.608;-117.032;2022-09-16T03:54:31;99316.95;;;29.32;43.35
60646;BME280;46462;32.608;-117.032;2022-09-16T03:57:01;99321.12;;;29.30;43.34
60646;BME280;46462;32.608;-117.032;2022-09-16T03:59:31;99322.41;;;29.30;43.31
60646;BME280;46462;32.608;-117.032;2022-09-16T04:02:01;99324.93;;;29.30;43.30
60646;BME280;46462;32.608;-117.032;2022-09-16T04:04:31;99329.35;;;29.30;43.33
60646;BME280;46462;32.608;-117.032;2022-09-16T04:07:02;99329.09;;;29.31;43.29
60646;BME280;46462;32.608;-117.032;2022-09-16T04:09:33;99326.76;;;29.32;43.27
60646;BME280;46462;32.608;-117.032;2022-09-16T04:12:02;99326.35;;;29.32;43.31
60646;BME280;46462;32.608;-117.032;2022-09-16T04:14:32;99328.42;;;29.30;43.37
60646;BME280;46462;32.608;-117.032;2022-09-16T04:17:02;99326.01;;;29.31;43.33
60646;BME280;46462;32.608;-117.032;2022-09-16T04:19:32;99324.64;;;29.31;43.33
60646;BME280;46462;32.608;-117.032;2022-09-16T04:22:02;99325.22;;;29.32;43.29
60646;BME280;46462;32.608;-117.032;2022-09-16T04:24:32;99326.09;;;29.30;43.39
60646;BME280;46462;32.608;-117.032;2022-09-16T04:27:03;99328.30;;;29.31;43.35
60646;BME280;46462;32.608;-117.032;2022-09-16T04:29:32;99327.72;;;29.29;43.42
60646;BME280;46462;32.608;-117.032;2022-09-16T04:32:02;99329.68;;;29.28;43.45
60646;BME280;46462;32.608;-117.032;2022-09-16T04:34:33;99334.18;;;29.25;43.55
60646;BME280;46462;32.608;-117.032;2022-09-16T04:37:03;99333.24;;;29.26;43.49
60646;BME280;46462;32.608;-117.032;2022-09-16T04:39:33;99334.10;;;29.26;43.48
60646;BME280;46462;32.608;-117.032;2022-09-16T04:42:03;99336.00;;;29.22;43.57
60646;BME280;46462;32.608;-117.032;2022-09-16T04:44:33;99334.99;;;29.21;43.57
60646;BME280;46462;32.608;-117.032;2022-09-16T04:47:03;99335.69;;;29.23;43.55
60646;BME280;46462;32.608;-117.032;2022-09-16T04:49:33;99333.48;;;29.20;43.58
60646;BME280;46462;32.608;-117.032;2022-09-16T04:52:03;99330.96;;;29.23;43.50
60646;BME280;46462;32.608;-117.032;2022-09-16T04:54:33;99332.75;;;29.19;43.53
60646;BME280;46462;32.608;-117.032;2022-09-16T04:57:04;99331.79;;;29.21;43.51
60646;BME280;46462;32.608;-117.032;2022-09-16T04:59:34;99331.89;;;29.18;43.57
60646;BME280;46462;32.608;-117.032;2022-09-16T05:02:04;99331.68;;;29.20;43.53
60646;BME280;46462;32.608;-117.032;2022-09-16T05:04:34;99330.58;;;29.14;43.63
60646;BME280;46462;32.608;-117.032;2022-09-16T05:07:04;99333.68;;;29.14;43.66
60646;BME280;46462;32.608;-117.032;2022-09-16T05:09:34;99331.19;;;29.14;43.65
60646;BME280;46462;32.608;-117.032;2022-09-16T05:12:05;99330.04;;;29.13;43.56
60646;BME280;46462;32.608;-117.032;2022-09-16T05:14:34;99330.80;;;29.11;43.66
60646;BME280;46462;32.608;-117.032;2022-09-16T05:17:04;99330.96;;;29.10;43.65
60646;BME280;46462;32.608;-117.032;2022-09-16T05:19:34;99334.04;;;29.07;43.68
60646;BME280;46462;32.608;-117.032;2022-09-16T05:22:04;99333.14;;;29.08;43.64
60646;BME280;46462;32.608;-117.032;2022-09-16T05:24:35;99328.57;;;29.03;43.76
60646;BME280;46462;32.608;-117.032;2022-09-16T05:27:05;99329.85;;;29.02;43.80
60646;BME280;46462;32.608;-117.032;2022-09-16T05:29:35;99330.35;;;29.03;43.77
60646;BME280;46462;32.608;-117.032;2022-09-16T05:32:05;99328.25;;;29.02;43.76
60646;BME280;46462;32.608;-117.032;2022-09-16T05:34:35;99330.67;;;28.99;43.83
60646;BME280;46462;32.608;-117.032;2022-09-16T05:37:05;99331.01;;;28.95;43.92
60646;BME280;46462;32.608;-117.032;2022-09-16T05:39:35;99329.19;;;28.93;44.01
60646;BME280;46462;32.608;-117.032;2022-09-16T05:42:05;99329.28;;;28.90;44.11
60646;BME280;46462;32.608;-117.032;2022-09-16T05:44:36;99330.70;;;28.91;43.97
60646;BME280;46462;32.608;-117.032;2022-09-16T05:47:05;99332.34;;;28.93;44.01
60646;BME280;46462;32.608;-117.032;2022-09-16T05:49:36;99331.32;;;28.85;44.10
60646;BME280;46462;32.608;-117.032;2022-09-16T05:52:06;99332.67;;;28.82;44.23
60646;BME280;46462;32.608;-117.032;2022-09-16T05:54:36;99332.21;;;28.82;44.14
60646;BME280;46462;32.608;-117.032;2022-09-16T05:57:06;99329.33;;;28.84;44.06
60646;BME280;46462;32.608;-117.032;2022-09-16T05:59:36;99322.48;;;28.80;44.20
60646;BME280;46462;32.608;-117.032;2022-09-16T06:02:07;99319.20;;;28.82;44.09
60646;BME280;46462;32.608;-117.032;2022-09-16T06:04:36;99318.34;;;28.81;44.20
60646;BME280;46462;32.608;-117.032;2022-09-16T06:07:06;99318.67;;;28.83;44.04
60646;BME280;46462;32.608;-117.032;2022-09-16T06:09:36;99319.54;;;28.80;44.12
60646;BME280;46462;32.608;-117.032;2022-09-16T06:12:07;99318.37;;;28.78;44.11
60646;BME280;46462;32.608;-117.032;2022-09-16T06:14:37;99318.92;;;28.75;44.21
60646;BME280;46462;32.608;-117.032;2022-09-16T06:17:07;99319.03;;;28.75;44.23
60646;BME280;46462;32.608;-117.032;2022-09-16T06:19:37;99319.37;;;28.76;44.20
60646;BME280;46462;32.608;-117.032;2022-09-16T06:22:07;99320.84;;;28.79;44.08
60646;BME280;46462;32.608;-117.032;2022-09-16T06:24:37;99319.17;;;28.69;44.27
60646;BME280;46462;32.608;-117.032;2022-09-16T06:27:07;99315.63;;;28.67;44.39
60646;BME280;46462;32.608;-117.032;2022-09-16T06:29:37;99314.32;;;28.60;44.43
60646;BME280;46462;32.608;-117.032;2022-09-16T06:32:07;99311.62;;;28.63;44.40
60646;BME280;46462;32.608;-117.032;2022-09-16T06:34:37;99311.06;;;28.60;44.51
60646;BME280;46462;32.608;-117.032;2022-09-16T06:37:08;99312.30;;;28.62;44.33
60646;BME280;46462;32.608;-117.032;2022-09-16T06:39:38;99311.49;;;28.59;44.38
60646;BME280;46462;32.608;-117.032;2022-09-16T06:42:08;99309.12;;;28.54;44.46
60646;BME280;46462;32.608;-117.032;2022-09-16T06:44:38;99308.94;;;28.51;44.57
60646;BME280;46462;32.608;-117.032;2022-09-16T06:47:08;99311.02;;;28.54;44.45
60646;BME280;46462;32.608;-117.032;2022-09-16T06:49:38;99311.95;;;28.48;44.52
60646;BME280;46462;32.608;-117.032;2022-09-16T06:52:08;99313.67;;;28.57;44.46
60646;BME280;46462;32.608;-117.032;2022-09-16T06:54:38;99311.13;;;28.51;44.41
60646;BME280;46462;32.608;-117.032;2022-09-16T06:57:08;99311.27;;;28.51;44.50
60646;BME280;46462;32.608;-117.032;2022-09-16T06:59:39;99313.60;;;28.49;44.39
60646;BME280;46462;32.608;-117.032;2022-09-16T07:02:09;99314.94;;;28.45;44.46
60646;BME280;46462;32.608;-117.032;2022-09-16T07:04:39;99318.15;;;28.44;44.47
60646;BME280;46462;32.608;-117.032;2022-09-16T07:07:09;99316.97;;;28.51;44.39
60646;BME280;46462;32.608;-117.032;2022-09-16T07:09:39;99316.54;;;28.45;44.33
60646;BME280;46462;32.608;-117.032;2022-09-16T07:12:09;99318.79;;;28.55;44.26
60646;BME280;46462;32.608;-117.032;2022-09-16T07:14:39;99317.75;;;28.47;44.38
60646;BME280;46462;32.608;-117.032;2022-09-16T07:17:09;99315.81;;;28.51;44.20
60646;BME280;46462;32.608;-117.032;2022-09-16T07:19:39;99319.47;;;28.42;44.31
60646;BME280;46462;32.608;-117.032;2022-09-16T07:22:10;99316.87;;;28.35;44.49
60646;BME280;46462;32.608;-117.032;2022-09-16T07:24:40;99317.33;;;28.34;44.54
60646;BME280;46462;32.608;-117.032;2022-09-16T07:27:10;99320.29;;;28.36;44.52
60646;BME280;46462;32.608;-117.032;2022-09-16T07:29:40;99322.24;;;28.36;44.34
60646;BME280;46462;32.608;-117.032;2022-09-16T07:32:10;99322.47;;;28.26;44.64
60646;BME280;46462;32.608;-117.032;2022-09-16T07:34:40;99321.37;;;28.24;44.80
60646;BME280;46462;32.608;-117.032;2022-09-16T07:37:10;99322.20;;;28.30;44.69
60646;BME280;46462;32.608;-117.032;2022-09-16T07:39:40;99327.66;;;28.35;44.35
60646;BME280;46462;32.608;-117.032;2022-09-16T07:42:10;99328.63;;;28.33;44.36
60646;BME280;46462;32.608;-117.032;2022-09-16T07:44:41;99325.42;;;28.37;44.43
60646;BME280;46462;32.608;-117.032;2022-09-16T07:47:11;99323.20;;;28.39;44.18
60646;BME280;46462;32.608;-117.032;2022-09-16T07:49:41;99322.35;;;28.32;44.35
60646;BME280;46462;32.608;-117.032;2022-09-16T07:52:11;99322.02;;;28.36;44.19
60646;BME280;46462;32.608;-117.032;2022-09-16T07:54:41;99320.97;;;28.44;44.10
60646;BME280;46462;32.608;-117.032;2022-09-16T07:57:11;99318.14;;;28.54;43.70
60646;BME280;46462;32.608;-117.032;2022-09-16T07:59:41;99318.62;;;28.46;43.88
60646;BME280;46462;32.608;-117.032;2022-09-16T08:02:11;99319.01;;;28.32;44.25
60646;BME280;46462;32.608;-117.032;2022-09-16T08:04:43;99320.38;;;28.35;43.98
60646;BME280;46462;32.608;-117.032;2022-09-16T08:07:11;99317.83;;;28.25;44.37
60646;BME280;46462;32.608;-117.032;2022-09-16T08:09:42;99315.14;;;28.19;44.33
60646;BME280;46462;32.608;-117.032;2022-09-16T08:12:12;99311.37;;;28.19;44.02
60646;BME280;46462;32.608;-117.032;2022-09-16T08:14:42;99311.44;;;28.16;44.59
60646;BME280;46462;32.608;-117.032;2022-09-16T08:17:12;99310.68;;;28.31;43.91
60646;BME280;46462;32.608;-117.032;2022-09-16T08:19:42;99311.45;;;28.40;43.81
60646;BME280;46462;32.608;-117.032;2022-09-16T08:22:12;99311.10;;;28.33;43.93
60646;BME280;46462;32.608;-117.032;2022-09-16T08:24:42;99308.95;;;28.41;43.67
60646;BME280;46462;32.608;-117.032;2022-09-16T08:27:12;99304.92;;;28.31;43.88
60646;BME280;46462;32.608;-117.032;2022-09-16T08:29:43;99302.82;;;28.23;43.75
60646;BME280;46462;32.608;-117.032;2022-09-16T08:32:13;99304.77;;;28.24;44.10
60646;BME280;46462;32.608;-117.032;2022-09-16T08:34:43;99303.17;;;28.21;44.00
60646;BME280;46462;32.608;-117.032;2022-09-16T08:37:13;99304.92;;;28.14;43.97
60646;BME280;46462;32.608;-117.032;2022-09-16T08:39:43;99305.11;;;28.15;44.01
60646;BME280;46462;32.608;-117.032;2022-09-16T08:42:26;99306.64;;;28.24;43.92
60646;BME280;46462;32.608;-117.032;2022-09-16T08:44:48;99302.65;;;28.22;43.80
60646;BME280;46462;32.608;-117.032;2022-09-16T08:47:23;99303.21;;;28.27;43.79
60646;BME280;46462;32.608;-117.032;2022-09-16T08:49:45;99302.16;;;28.17;43.90
60646;BME280;46462;32.608;-117.032;2022-09-16T08:52:22;99301.39;;;28.23;43.51
60646;BME280;46462;32.608;-117.032;2022-09-16T08:54:46;99292.99;;;28.17;43.87
60646;BME280;46462;32.608;-117.032;2022-09-16T08:57:29;99292.07;;;28.13;44.14
60646;BME280;46462;32.608;-117.032;2022-09-16T08:59:48;99294.29;;;28.01;43.91
60646;BME280;46462;32.608;-117.032;2022-09-16T09:02:25;99289.72;;;28.12;43.85
60646;BME280;46462;32.608;-117.032;2022-09-16T09:04:44;99288.81;;;28.13;43.62
60646;BME280;46462;32.608;-117.032;2022-09-16T09:07:20;99285.52;;;28.09;43.94
60646;BME280;46462;32.608;-117.032;2022-09-16T09:09:53;99284.82;;;28.10;43.92
60646;BME280;46462;32.608;-117.032;2022-09-16T09:12:20;99282.14;;;28.00;43.78
60646;BME280;46462;32.608;-117.032;2022-09-16T09:14:58;99277.84;;;27.85;44.05
60646;BME280;46462;32.608;-117.032;2022-09-16T09:17:22;99273.87;;;27.84;44.16
60646;BME280;46462;32.608;-117.032;2022-09-16T09:19:56;99274.10;;;27.93;43.97
60646;BME280;46462;32.608;-117.032;2022-09-16T09:22:26;99275.04;;;27.87;44.17
60646;BME280;46462;32.608;-117.032;2022-09-16T09:24:56;99272.29;;;27.94;43.93
60646;BME280;46462;32.608;-117.032;2022-09-16T09:27:20;99271.80;;;27.90;44.03
60646;BME280;46462;32.608;-117.032;2022-09-16T09:32:27;99271.10;;;27.90;44.07
60646;BME280;46462;32.608;-117.032;2022-09-16T09:34:57;99271.09;;;28.00;43.81
60646;BME280;46462;32.608;-117.032;2022-09-16T09:37:28;99273.59;;;27.85;44.04
60646;BME280;46462;32.608;-117.032;2022-09-16T09:39:55;99273.86;;;27.74;44.21
60646;BME280;46462;32.608;-117.032;2022-09-16T09:42:20;99273.70;;;27.84;43.75
60646;BME280;46462;32.608;-117.032;2022-09-16T09:44:50;99273.12;;;27.64;44.44
60646;BME280;46462;32.608;-117.032;2022-09-16T09:47:21;99268.25;;;27.67;44.21
60646;BME280;46462;32.608;-117.032;2022-09-16T09:49:49;99263.57;;;27.83;43.87
60646;BME280;46462;32.608;-117.032;2022-09-16T09:52:20;99258.54;;;27.80;44.12
60646;BME280;46462;32.608;-117.032;2022-09-16T09:54:49;99254.34;;;27.74;44.27
60646;BME280;46462;32.608;-117.032;2022-09-16T09:57:23;99249.59;;;27.78;43.81
60646;BME280;46462;32.608;-117.032;2022-09-16T09:59:49;99244.04;;;27.87;43.83
60646;BME280;46462;32.608;-117.032;2022-09-16T10:02:19;99245.71;;;27.89;43.75
60646;BME280;46462;32.608;-117.032;2022-09-16T10:04:48;99246.86;;;27.64;44.21
60646;BME280;46462;32.608;-117.032;2022-09-16T10:07:19;99244.87;;;27.72;44.02
60646;BME280;46462;32.608;-117.032;2022-09-16T10:09:54;99243.39;;;27.65;43.94
60646;BME280;46462;32.608;-117.032;2022-09-16T10:12:26;99242.39;;;27.68;43.80
60646;BME280;46462;32.608;-117.032;2022-09-16T10:14:48;99240.54;;;27.66;44.00
60646;BME280;46462;32.608;-117.032;2022-09-16T10:17:18;99236.90;;;27.81;43.73
60646;BME280;46462;32.608;-117.032;2022-09-16T10:19:52;99242.06;;;27.70;43.85
60646;BME280;46462;32.608;-117.032;2022-09-16T10:22:22;99241.54;;;27.88;43.62
60646;BME280;46462;32.608;-117.032;2022-09-16T10:24:54;99247.43;;;27.79;43.75
60646;BME280;46462;32.608;-117.032;2022-09-16T10:27:21;99247.58;;;27.90;43.50
60646;BME280;46462;32.608;-117.032;2022-09-16T10:32:19;99248.99;;;27.79;43.58
60646;BME280;46462;32.608;-117.032;2022-09-16T10:34:49;99253.21;;;27.60;43.85
60646;BME280;46462;32.608;-117.032;2022-09-16T10:37:19;99256.25;;;27.53;43.89
60646;BME280;46462;32.608;-117.032;2022-09-16T10:39:52;99262.37;;;27.79;43.38
60646;BME280;46462;32.608;-117.032;2022-09-16T10:42:21;99271.13;;;27.84;43.24
60646;BME280;46462;32.608;-117.032;2022-09-16T10:44:50;99273.26;;;27.85;43.13
60646;BME280;46462;32.608;-117.032;2022-09-16T10:47:21;99277.42;;;27.76;43.21
60646;BME280;46462;32.608;-117.032;2022-09-16T10:49:51;99282.69;;;27.58;44.04
60646;BME280;46462;32.608;-117.032;2022-09-16T10:52:23;99284.63;;;27.62;43.53
60646;BME280;46462;32.608;-117.032;2022-09-16T10:54:50;99281.36;;;27.57;43.63
60646;BME280;46462;32.608;-117.032;2022-09-16T10:57:23;99278.28;;;27.54;43.90
60646;BME280;46462;32.608;-117.032;2022-09-16T10:59:56;99277.77;;;27.66;43.39
60646;BME280;46462;32.608;-117.032;2022-09-16T11:02:28;99274.42;;;27.73;43.34
60646;BME280;46462;32.608;-117.032;2022-09-16T11:04:59;99272.87;;;27.75;43.18
60646;BME280;46462;32.608;-117.032;2022-09-16T11:07:30;99268.85;;;27.73;42.92
60646;BME280;46462;32.608;-117.032;2022-09-16T11:09:58;99269.82;;;27.60;43.82
60646;BME280;46462;32.608;-117.032;2022-09-16T11:12:33;99267.41;;;27.53;43.78
60646;BME280;46462;32.608;-117.032;2022-09-16T11:14:56;99263.17;;;27.72;43.10
60646;BME280;46462;32.608;-117.032;2022-09-16T11:17:32;99258.75;;;27.89;42.68
60646;BME280;46462;32.608;-117.032;2022-09-16T11:20:03;99259.26;;;27.76;42.95
60646;BME280;46462;32.608;-117.032;2022-09-16T11:22:27;99257.93;;;27.83;42.69
60646;BME280;46462;32.608;-117.032;2022-09-16T11:27:31;99264.88;;;27.70;42.91
60646;BME280;46462;32.608;-117.032;2022-09-16T11:30:00;99262.69;;;27.76;42.87
60646;BME280;46462;32.608;-117.032;2022-09-16T11:32:28;99257.85;;;27.75;43.12
60646;BME280;46462;32.608;-117.032;2022-09-16T11:35:05;99257.24;;;27.73;42.67
60646;BME280;46462;32.608;-117.032;2022-09-16T11:37:25;99255.13;;;27.71;42.89
60646;BME280;46462;32.608;-117.032;2022-09-16T11:40:02;99255.05;;;27.69;42.89
60646;BME280;46462;32.608;-117.032;2022-09-16T11:42:26;99251.13;;;27.80;42.56
60646;BME280;46462;32.608;-117.032;2022-09-16T11:44:59;99252.82;;;27.71;42.83
60646;BME280;46462;32.608;-117.032;2022-09-16T11:50:04;99250.36;;;27.62;43.06
60646;BME280;46462;32.608;-117.032;2022-09-16T11:52:34;99240.59;;;27.63;42.91
60646;BME280;46462;32.608;-117.032;2022-09-16T11:55:06;99234.72;;;27.57;43.04
60646;BME280;46462;32.608;-117.032;2022-09-16T11:57:28;99235.41;;;27.57;42.90
60646;BME280;46462;32.608;-117.032;2022-09-16T11:59:56;99234.54;;;27.60;42.83
60646;BME280;46462;32.608;-117.032;2022-09-16T12:02:25;99232.78;;;27.56;43.23
60646;BME280;46462;32.608;-117.032;2022-09-16T12:04:58;99237.23;;;27.58;42.89
60646;BME280;46462;32.608;-117.032;2022-09-16T12:07:28;99242.10;;;27.65;42.69
60646;BME280;46462;32.608;-117.032;2022-09-16T12:09:58;99243.05;;;27.70;42.53
60646;BME280;46462;32.608;-117.032;2022-09-16T12:12:27;99242.03;;;27.62;42.91
60646;BME280;46462;32.608;-117.032;2022-09-16T12:14:57;99246.16;;;27.49;43.06
60646;BME280;46462;32.608;-117.032;2022-09-16T12:17:26;99247.04;;;27.60;42.71
60646;BME280;46462;32.608;-117.032;2022-09-16T12:19:58;99251.51;;;27.60;42.78
60646;BME280;46462;32.608;-117.032;2022-09-16T12:22:27;99249.38;;;27.55;42.73
60646;BME280;46462;32.608;-117.032;2022-09-16T12:24:59;99243.89;;;27.60;42.68
60646;BME280;46462;32.608;-117.032;2022-09-16T12:27:35;99246.41;;;27.41;42.98
60646;BME280;46462;32.608;-117.032;2022-09-16T12:29:58;99250.68;;;27.46;43.37
60646;BME280;46462;32.608;-117.032;2022-09-16T12:32:31;99255.58;;;27.43;43.03
60646;BME280;46462;32.608;-117.032;2022-09-16T12:34:58;99253.67;;;27.49;43.01
60646;BME280;46462;32.608;-117.032;2022-09-16T12:37:34;99256.32;;;27.51;42.62
60646;BME280;46462;32.608;-117.032;2022-09-16T12:39:55;99254.93;;;27.38;43.49
60646;BME280;46462;32.608;-117.032;2022-09-16T12:42:39;99256.25;;;27.53;42.84
60646;BME280;46462;32.608;-117.032;2022-09-16T12:45:06;99256.32;;;27.58;42.53
60646;BME280;46462;32.608;-117.032;2022-09-16T12:52:33;99256.76;;;27.55;42.47
60646;BME280;46462;32.608;-117.032;2022-09-16T12:57:39;99255.20;;;27.42;42.79
60646;BME280;46462;32.608;-117.032;2022-09-16T13:00:06;99251.74;;;27.32;43.02
60646;BME280;46462;32.608;-117.032;2022-09-16T13:02:31;99252.84;;;27.37;42.85
60646;BME280;46462;32.608;-117.032;2022-09-16T13:04:57;99256.54;;;27.47;42.56
60646;BME280;46462;32.608;-117.032;2022-09-16T13:07:31;99255.64;;;27.39;42.64
60646;BME280;46462;32.608;-117.032;2022-09-16T13:10:02;99256.98;;;27.45;42.53
60646;BME280;46462;32.608;-117.032;2022-09-16T13:12:27;99256.13;;;27.44;42.43